^^
Grace C. Lehan Memorial Weather Station Historical Data
Daily Summary for April 6, 2022 Units:  Both    English   Metric
Daily Weekly Monthly Yearly
  High: Low: Average:
Temperature: 95.4 °F /  35.2 °C 74.5 °F /  23.6 °C 85 °F /  29.4 °C
Dew Point: 77.9 °F /  25.5 °C 71.7 °F /  22.1 °C 74.1 °F /  23.4 °C
Humidity: 93.3% 50% 72%
Wind Speed: 1.8mph /  2.9km/h - 0.2mph /  0.3km/h
Wind Gust: 12mph /  19.3km/h - -
Wind- - SW
Pressure: 30.17 in /  1021.6 hPa 30.08 in /  1018.5 hPa -
Precipitation: 0.00 in /  0 mm    
 
 
Tabular Data for April 6, 2022
Time Temperature Dew Point Pressure Wind Wind Speed Wind Gust Humidity Rainfall Rate (Hourly) solar
00:00 79.8 °F /  26.6 °C 72.7 °F /  22.6 °C 30.11in /  1019.5hPa Calm     79% 0.00in /  0mm 0 W/m2
00:09 79.6 °F /  26.4 °C 72.5 °F /  22.5 °C 30.11in /  1019.5hPa Calm     79% 0.00in /  0mm 0 W/m2
00:14 79.5 °F /  26.4 °C 72.5 °F /  22.5 °C 30.11in /  1019.5hPa Calm     79.4% 0.00in /  0mm 0 W/m2
00:19 79.3 °F /  26.3 °C 72.6 °F /  22.6 °C 30.11in /  1019.5hPa Calm     80% 0.00in /  0mm 0 W/m2
00:24 79.2 °F /  26.2 °C 72.5 °F /  22.5 °C 30.11in /  1019.5hPa Calm     80% 0.00in /  0mm 0 W/m2
00:29 79.1 °F /  26.2 °C 72.4 °F /  22.4 °C 30.11in /  1019.5hPa Calm     80% 0.00in /  0mm 0 W/m2
00:34 79 °F /  26.1 °C 72.3 °F /  22.4 °C 30.11in /  1019.5hPa Calm     80.2% 0.00in /  0mm 0 W/m2
00:39 78.9 °F /  26.1 °C 72.6 °F /  22.6 °C 30.11in /  1019.5hPa Calm     81% 0.00in /  0mm 0 W/m2
00:44 78.7 °F /  25.9 °C 72.4 °F /  22.4 °C 30.11in /  1019.5hPa Calm     81% 0.00in /  0mm 0 W/m2
00:49 78.7 °F /  25.9 °C 72.4 °F /  22.4 °C 30.11in /  1019.5hPa Calm     81.2% 0.00in /  0mm 0 W/m2
00:54 78.6 °F /  25.9 °C 72.6 °F /  22.6 °C 30.11in /  1019.5hPa Calm     82% 0.00in /  0mm 0 W/m2
00:59 78.5 °F /  25.8 °C 72.6 °F /  22.6 °C 30.11in /  1019.5hPa Calm     82% 0.00in /  0mm 0 W/m2
01:04 78.4 °F /  25.8 °C 72.5 °F /  22.5 °C 30.11in /  1019.5hPa Calm     82% 0.00in /  0mm 0 W/m2
01:09 78.3 °F /  25.7 °C 72.4 °F /  22.4 °C 30.11in /  1019.5hPa Calm     82% 0.00in /  0mm 0 W/m2
01:14 78.2 °F /  25.7 °C 72.3 °F /  22.4 °C 30.11in /  1019.5hPa Calm     82.1% 0.00in /  0mm 0 W/m2
01:19 78.1 °F /  25.6 °C 72.5 °F /  22.5 °C 30.11in /  1019.5hPa Calm     83% 0.00in /  0mm 0 W/m2
01:24 77.9 °F /  25.5 °C 72.4 °F /  22.4 °C 30.11in /  1019.5hPa Calm     83% 0.00in /  0mm 0 W/m2
01:29 77.8 °F /  25.4 °C 72.2 °F /  22.3 °C 30.11in /  1019.5hPa Calm     83% 0.00in /  0mm 0 W/m2
01:34 77.7 °F /  25.4 °C 72.4 °F /  22.4 °C 30.11in /  1019.5hPa Calm     83.9% 0.00in /  0mm 0 W/m2
01:39 77.6 °F /  25.3 °C 72.4 °F /  22.4 °C 30.11in /  1019.5hPa Calm     84% 0.00in /  0mm 0 W/m2
01:44 77.5 °F /  25.3 °C 72.3 °F /  22.4 °C 30.11in /  1019.5hPa Calm     84% 0.00in /  0mm 0 W/m2
01:49 77.5 °F /  25.3 °C 72.2 °F /  22.3 °C 30.12in /  1019.9hPa Calm     84% 0.00in /  0mm 0 W/m2
01:54 77.3 °F /  25.2 °C 72.1 °F /  22.3 °C 30.12in /  1019.9hPa Calm     84% 0.00in /  0mm 0 W/m2
01:59 77.3 °F /  25.2 °C 72.1 °F /  22.3 °C 30.12in /  1019.9hPa Calm     84% 0.00in /  0mm 0 W/m2
02:04 77.2 °F /  25.1 °C 72.3 °F /  22.4 °C 30.12in /  1019.9hPa Calm     85% 0.00in /  0mm 0 W/m2
02:09 77.1 °F /  25.1 °C 72.3 °F /  22.4 °C 30.12in /  1019.9hPa Calm     85% 0.00in /  0mm 0 W/m2
02:14 77.1 °F /  25.1 °C 72.2 °F /  22.3 °C 30.12in /  1019.9hPa Calm     85% 0.00in /  0mm 0 W/m2
02:19 77 °F /  25 °C 72.3 °F /  22.4 °C 30.12in /  1019.9hPa Calm     85.5% 0.00in /  0mm 0 W/m2
02:24 76.9 °F /  24.9 °C 72.4 °F /  22.4 °C 30.12in /  1019.9hPa Calm     86% 0.00in /  0mm 0 W/m2
02:29 76.9 °F /  24.9 °C 72.4 °F /  22.4 °C 30.12in /  1019.9hPa Calm     86% 0.00in /  0mm 0 W/m2
02:34 76.8 °F /  24.9 °C 72.5 °F /  22.5 °C 30.12in /  1019.9hPa Calm     86.6% 0.00in /  0mm 0 W/m2
02:39 76.8 °F /  24.9 °C 72.6 °F /  22.6 °C 30.12in /  1019.9hPa Calm     87% 0.00in /  0mm 0 W/m2
02:44 76.7 °F /  24.8 °C 72.5 °F /  22.5 °C 30.12in /  1019.9hPa Calm     87% 0.00in /  0mm 0 W/m2
02:49 76.6 °F /  24.8 °C 72.5 °F /  22.5 °C 30.13in /  1020.2hPa Calm     87% 0.00in /  0mm 0 W/m2
02:54 76.6 °F /  24.8 °C 72.6 °F /  22.6 °C 30.13in /  1020.2hPa Calm     87.3% 0.00in /  0mm 0 W/m2
02:59 76.5 °F /  24.7 °C 72.7 °F /  22.6 °C 30.13in /  1020.2hPa Calm     88% 0.00in /  0mm 0 W/m2
03:03 76.5 °F /  24.7 °C 72.7 °F /  22.6 °C 30.13in /  1020.2hPa Calm     88% 0.00in /  0mm 0 W/m2
03:09 76.4 °F /  24.7 °C 72.6 °F /  22.6 °C 30.13in /  1020.2hPa Calm     88% 0.00in /  0mm 0 W/m2
03:14 76.4 °F /  24.7 °C 72.6 °F /  22.6 °C 30.13in /  1020.2hPa Calm     88% 0.00in /  0mm 0 W/m2
03:19 76.3 °F /  24.6 °C 72.5 °F /  22.5 °C 30.13in /  1020.2hPa Calm     88% 0.00in /  0mm 0 W/m2
03:24 76.3 °F /  24.6 °C 72.7 °F /  22.6 °C 30.13in /  1020.2hPa Calm     88.6% 0.00in /  0mm 0 W/m2
03:29 76.3 °F /  24.6 °C 72.8 °F /  22.7 °C 30.13in /  1020.2hPa Calm     89% 0.00in /  0mm 0 W/m2
03:34 76.2 °F /  24.6 °C 72.8 °F /  22.7 °C 30.13in /  1020.2hPa Calm     89% 0.00in /  0mm 0 W/m2
03:39 76.2 °F /  24.6 °C 72.7 °F /  22.6 °C 30.12in /  1019.9hPa Calm     89% 0.00in /  0mm 0 W/m2
03:44 76.2 °F /  24.6 °C 72.7 °F /  22.6 °C 30.12in /  1019.9hPa Calm     89% 0.00in /  0mm 0 W/m2
03:49 76.2 °F /  24.6 °C 72.7 °F /  22.6 °C 30.12in /  1019.9hPa Calm     89% 0.00in /  0mm 0 W/m2
03:54 76.1 °F /  24.5 °C 72.7 °F /  22.6 °C 30.12in /  1019.9hPa Calm     89% 0.00in /  0mm 0 W/m2
03:59 76.1 °F /  24.5 °C 72.6 °F /  22.6 °C 30.13in /  1020.2hPa Calm     89% 0.00in /  0mm 0 W/m2
04:00 76.1 °F /  24.5 °C 72.6 °F /  22.6 °C 30.13in /  1020.2hPa Calm     89% 0.00in /  0mm 0 W/m2
04:09 76 °F /  24.4 °C 72.7 °F /  22.6 °C 30.13in /  1020.2hPa Calm     89.5% 0.00in /  0mm 0 W/m2
04:14 76 °F /  24.4 °C 72.9 °F /  22.7 °C 30.13in /  1020.2hPa Calm     90% 0.00in /  0mm 0 W/m2
04:19 75.9 °F /  24.4 °C 72.8 °F /  22.7 °C 30.13in /  1020.2hPa Calm     90% 0.00in /  0mm 0 W/m2
04:24 75.8 °F /  24.3 °C 72.7 °F /  22.6 °C 30.13in /  1020.2hPa Calm     90% 0.00in /  0mm 0 W/m2
04:29 75.8 °F /  24.3 °C 72.6 °F /  22.6 °C 30.13in /  1020.2hPa Calm     90% 0.00in /  0mm 0 W/m2
04:34 75.7 °F /  24.3 °C 72.6 °F /  22.6 °C 30.13in /  1020.2hPa Calm     90% 0.00in /  0mm 0 W/m2
04:39 75.7 °F /  24.3 °C 72.5 °F /  22.5 °C 30.14in /  1020.5hPa Calm     90% 0.00in /  0mm 0 W/m2
04:44 75.6 °F /  24.2 °C 72.5 °F /  22.5 °C 30.14in /  1020.5hPa Calm     90% 0.00in /  0mm 0 W/m2
04:49 75.5 °F /  24.2 °C 72.4 °F /  22.4 °C 30.14in /  1020.5hPa Calm     90% 0.00in /  0mm 0 W/m2
04:54 75.4 °F /  24.1 °C 72.3 °F /  22.4 °C 30.14in /  1020.5hPa Calm     90% 0.00in /  0mm 0 W/m2
04:59 75.4 °F /  24.1 °C 72.2 °F /  22.3 °C 30.13in /  1020.2hPa Calm     90% 0.00in /  0mm 0 W/m2
05:04 75.3 °F /  24.1 °C 72.2 °F /  22.3 °C 30.13in /  1020.2hPa Calm     90% 0.00in /  0mm 0 W/m2
05:09 75.2 °F /  24 °C 72.1 °F /  22.3 °C 30.14in /  1020.5hPa Calm     90% 0.00in /  0mm 0 W/m2
05:14 75.1 °F /  23.9 °C 72.2 °F /  22.3 °C 30.14in /  1020.5hPa Calm     90.8% 0.00in /  0mm 0 W/m2
05:19 75.1 °F /  23.9 °C 72.3 °F /  22.4 °C 30.14in /  1020.5hPa Calm     91% 0.00in /  0mm 0 W/m2
05:24 75 °F /  23.9 °C 72.2 °F /  22.3 °C 30.14in /  1020.5hPa Calm     91% 0.00in /  0mm 0 W/m2
05:29 74.9 °F /  23.8 °C 72.1 °F /  22.3 °C 30.14in /  1020.5hPa Calm     91% 0.00in /  0mm 0 W/m2
05:34 74.8 °F /  23.8 °C 72 °F /  22.2 °C 30.14in /  1020.5hPa Calm     91% 0.00in /  0mm 0 W/m2
05:39 74.8 °F /  23.8 °C 72 °F /  22.2 °C 30.14in /  1020.5hPa Calm     91% 0.00in /  0mm 0 W/m2
05:44 74.7 °F /  23.7 °C 71.9 °F /  22.2 °C 30.14in /  1020.5hPa Calm     91% 0.00in /  0mm 0 W/m2
05:49 74.7 °F /  23.7 °C 71.9 °F /  22.2 °C 30.15in /  1020.9hPa Calm     91% 0.00in /  0mm 0 W/m2
05:54 74.6 °F /  23.7 °C 71.8 °F /  22.1 °C 30.15in /  1020.9hPa Calm     91% 0.00in /  0mm 5 W/m2
05:59 74.6 °F /  23.7 °C 71.8 °F /  22.1 °C 30.15in /  1020.9hPa Calm     91% 0.00in /  0mm 7 W/m2
06:04 74.5 °F /  23.6 °C 71.7 °F /  22.1 °C 30.15in /  1020.9hPa Calm     91% 0.00in /  0mm 11 W/m2
06:09 74.5 °F /  23.6 °C 71.9 °F /  22.2 °C 30.15in /  1020.9hPa Calm     91.5% 0.00in /  0mm 12 W/m2
06:14 74.5 °F /  23.6 °C 72 °F /  22.2 °C 30.15in /  1020.9hPa Calm     92% 0.00in /  0mm 14 W/m2
06:19 74.5 °F /  23.6 °C 72.1 °F /  22.3 °C 30.15in /  1020.9hPa Calm     92% 0.00in /  0mm 14 W/m2
06:24 74.6 °F /  23.7 °C 72.1 °F /  22.3 °C 30.15in /  1020.9hPa Calm     92% 0.00in /  0mm 14 W/m2
06:29 74.6 °F /  23.7 °C 72.1 °F /  22.3 °C 30.16in /  1021.2hPa Calm     92% 0.00in /  0mm 18 W/m2
06:34 74.6 °F /  23.7 °C 72.1 °F /  22.3 °C 30.16in /  1021.2hPa Calm     92% 0.00in /  0mm 25 W/m2
06:39 74.7 °F /  23.7 °C 72.2 °F /  22.3 °C 30.16in /  1021.2hPa Calm     92% 0.00in /  0mm 25 W/m2
06:44 74.7 °F /  23.7 °C 72.2 °F /  22.3 °C 30.16in /  1021.2hPa Calm     92% 0.00in /  0mm 32 W/m2
06:49 74.8 °F /  23.8 °C 72.4 °F /  22.4 °C 30.16in /  1021.2hPa Calm     92.3% 0.00in /  0mm 58 W/m2
06:54 75 °F /  23.9 °C 72.8 °F /  22.7 °C 30.16in /  1021.2hPa Calm     93% 0.00in /  0mm 77 W/m2
06:59 75.3 °F /  24.1 °C 73.2 °F /  22.9 °C 30.16in /  1021.2hPa Calm     93% 0.00in /  0mm 125 W/m2
07:04 75.8 °F /  24.3 °C 73.7 °F /  23.2 °C 30.16in /  1021.2hPa Calm     93.3% 0.00in /  0mm 176 W/m2
07:09 76.3 °F /  24.6 °C 74.2 °F /  23.4 °C 30.16in /  1021.2hPa Calm     93% 0.00in /  0mm 186 W/m2
07:14 76.9 °F /  24.9 °C 74.4 °F /  23.6 °C 30.17in /  1021.6hPa Calm     91.9% 0.00in /  0mm 169 W/m2
07:19 77.5 °F /  25.3 °C 74.6 °F /  23.7 °C 30.17in /  1021.6hPa Calm     90.7% 0.00in /  0mm 188 W/m2
07:24 78.4 °F /  25.8 °C 75 °F /  23.9 °C 30.17in /  1021.6hPa Calm     89.5% 0.00in /  0mm 192 W/m2
07:29 79 °F /  26.1 °C 75 °F /  23.9 °C 30.17in /  1021.6hPa Calm     87.6% 0.00in /  0mm 232 W/m2
07:34 79.6 °F /  26.4 °C 75.1 °F /  23.9 °C 30.17in /  1021.6hPa Calm     86% 0.00in /  0mm 248 W/m2
07:39 80.4 °F /  26.9 °C 75.3 °F /  24.1 °C 30.17in /  1021.6hPa Calm     84.5% 0.00in /  0mm 262 W/m2
07:44 81 °F /  27.2 °C 75.3 °F /  24.1 °C 30.17in /  1021.6hPa Calm     82.9% 0.00in /  0mm 278 W/m2
07:49 81.7 °F /  27.6 °C 75.5 °F /  24.2 °C 30.17in /  1021.6hPa Calm     81.6% 0.00in /  0mm 294 W/m2
07:54 82.3 °F /  27.9 °C 75.5 °F /  24.2 °C 30.17in /  1021.6hPa Calm     80% 0.00in /  0mm 309 W/m2
07:59 82.9 °F /  28.3 °C 75.6 °F /  24.2 °C 30.17in /  1021.6hPa Calm     78.8% 0.00in /  0mm 327 W/m2
08:09 83.9 °F /  28.8 °C 75.9 °F /  24.4 °C 30.17in /  1021.6hPa Calm     76.9% 0.00in /  0mm 355 W/m2
08:14 84.5 °F /  29.2 °C 76.1 °F /  24.5 °C 30.17in /  1021.6hPa Calm     76% 0.00in /  0mm 378 W/m2
08:19 85 °F /  29.4 °C 76.2 °F /  24.6 °C 30.17in /  1021.6hPa Calm     75.1% 0.00in /  0mm 394 W/m2
08:24 85.4 °F /  29.7 °C 76.3 °F /  24.6 °C 30.17in /  1021.6hPa Calm     74.3% 0.00in /  0mm 403 W/m2
08:29 85.7 °F /  29.8 °C 76.1 °F /  24.5 °C 30.17in /  1021.6hPa Calm     72.9% 0.00in /  0mm 420 W/m2
08:34 86.1 °F /  30.1 °C 76.5 °F /  24.7 °C 30.17in /  1021.6hPa Calm     73.2% 0.00in /  0mm 436 W/m2
08:39 86.6 °F /  30.3 °C 76.8 °F /  24.9 °C 30.17in /  1021.6hPa Calm     72.6% 0.00in /  0mm 452 W/m2
08:44 87 °F /  30.6 °C 76.2 °F /  24.6 °C 30.17in /  1021.6hPa Calm     70.4% 0.00in /  0mm 503 W/m2
08:49 87.2 °F /  30.7 °C 76.3 °F /  24.6 °C 30.17in /  1021.6hPa Calm     70.3% 0.00in /  0mm 519 W/m2
08:54 87.1 °F /  30.6 °C 76.4 °F /  24.7 °C 30.17in /  1021.6hPa Calm     70.5% 0.00in /  0mm 592 W/m2
08:59 87.3 °F /  30.7 °C 77 °F /  25 °C 30.17in /  1021.6hPa Calm     71.5% 0.00in /  0mm 582 W/m2
09:04 87.8 °F /  31 °C 76.6 °F /  24.8 °C 30.17in /  1021.6hPa Calm     69.5% 0.00in /  0mm 548 W/m2
09:09 88.3 °F /  31.3 °C 76.8 °F /  24.9 °C 30.17in /  1021.6hPa Calm     69% 0.00in /  0mm 538 W/m2
09:14 88.8 °F /  31.6 °C 76.7 °F /  24.8 °C 30.17in /  1021.6hPa Calm   2mph /  3.2km/h 67.7% 0.00in /  0mm 555 W/m2
09:19 89 °F /  31.7 °C 76.7 °F /  24.8 °C 30.17in /  1021.6hPa Calm   2mph /  3.2km/h 67.1% 0.00in /  0mm 571 W/m2
09:24 89.2 °F /  31.8 °C 76.8 °F /  24.9 °C 30.16in /  1021.2hPa Calm   2mph /  3.2km/h 67.1% 0.00in /  0mm 582 W/m2
09:29 89.2 °F /  31.8 °C 76.6 °F /  24.8 °C 30.17in /  1021.6hPa Calm   2mph /  3.2km/h 66.5% 0.00in /  0mm 596 W/m2
09:34 89.2 °F /  31.8 °C 76.8 °F /  24.9 °C 30.17in /  1021.6hPa Calm   2mph /  3.2km/h 67% 0.00in /  0mm 612 W/m2
09:39 89.6 °F /  32 °C 77.3 °F /  25.2 °C 30.16in /  1021.2hPa Calm   2mph /  3.2km/h 67.2% 0.00in /  0mm 624 W/m2
09:44 89.8 °F /  32.1 °C 77.3 °F /  25.2 °C 30.16in /  1021.2hPa Calm   2mph /  3.2km/h 66.7% 0.00in /  0mm 638 W/m2
09:49 90.2 °F /  32.3 °C 77.7 °F /  25.4 °C 30.16in /  1021.2hPa WSW 0.1mph /  0.2km/h 2mph /  3.2km/h 66.9% 0.00in /  0mm 650 W/m2
09:54 90.4 °F /  32.4 °C 76.9 °F /  24.9 °C 30.16in /  1021.2hPa SW 0.2mph /  0.3km/h 4mph /  6.4km/h 64.6% 0.00in /  0mm 664 W/m2
09:59 90.2 °F /  32.3 °C 77.1 °F /  25.1 °C 30.16in /  1021.2hPa Calm   4mph /  6.4km/h 65.5% 0.00in /  0mm 677 W/m2
10:04 90.1 °F /  32.3 °C 77.1 °F /  25.1 °C 30.16in /  1021.2hPa SW 0.1mph /  0.2km/h 4mph /  6.4km/h 65.9% 0.00in /  0mm 687 W/m2
10:09 90.2 °F /  32.3 °C 77 °F /  25 °C 30.16in /  1021.2hPa Calm   4mph /  6.4km/h 65.5% 0.00in /  0mm 694 W/m2
10:14 90.3 °F /  32.4 °C 77.3 °F /  25.2 °C 30.16in /  1021.2hPa SW 0.3mph /  0.5km/h 7mph /  11.3km/h 65.7% 0.00in /  0mm 707 W/m2
10:19 90.7 °F /  32.6 °C 77.9 °F /  25.5 °C 30.16in /  1021.2hPa WSW 0.1mph /  0.2km/h 7mph /  11.3km/h 66.2% 0.00in /  0mm 740 W/m2
10:24 91.1 °F /  32.8 °C 77.3 °F /  25.2 °C 30.16in /  1021.2hPa SW 0.1mph /  0.2km/h 7mph /  11.3km/h 64.2% 0.00in /  0mm 805 W/m2
10:29 91.1 °F /  32.8 °C 76.9 °F /  24.9 °C 30.16in /  1021.2hPa South 0.3mph /  0.5km/h 7mph /  11.3km/h 63.4% 0.00in /  0mm 819 W/m2
10:34 90.8 °F /  32.7 °C 77.2 °F /  25.1 °C 30.16in /  1021.2hPa Calm   7mph /  11.3km/h 64.5% 0.00in /  0mm 823 W/m2
10:39 90.9 °F /  32.7 °C 77.9 °F /  25.5 °C 30.16in /  1021.2hPa Calm     65.8% 0.00in /  0mm 816 W/m2
10:44 90.9 °F /  32.7 °C 77.3 °F /  25.2 °C 30.16in /  1021.2hPa SSW 0.1mph /  0.2km/h 4mph /  6.4km/h 64.5% 0.00in /  0mm 668 W/m2
10:49 90.8 °F /  32.7 °C 77.4 °F /  25.2 °C 30.16in /  1021.2hPa SW 0.1mph /  0.2km/h 4mph /  6.4km/h 65% 0.00in /  0mm 605 W/m2
10:54 91 °F /  32.8 °C 77.2 °F /  25.1 °C 30.15in /  1020.9hPa Calm   4mph /  6.4km/h 64% 0.00in /  0mm 844 W/m2
10:59 91.3 °F /  32.9 °C 77.3 °F /  25.2 °C 30.15in /  1020.9hPa Calm   4mph /  6.4km/h 63.8% 0.00in /  0mm 844 W/m2
11:04 91.7 °F /  33.2 °C 77.6 °F /  25.3 °C 30.14in /  1020.5hPa SSW 0.2mph /  0.3km/h 4mph /  6.4km/h 63.5% 0.00in /  0mm 819 W/m2
11:09 92.2 °F /  33.4 °C 77.2 °F /  25.1 °C 30.14in /  1020.5hPa South 0.6mph /  1km/h 5mph /  8km/h 61.9% 0.00in /  0mm 893 W/m2
11:14 92 °F /  33.3 °C 77.4 °F /  25.2 °C 30.14in /  1020.5hPa South 0.1mph /  0.2km/h 5mph /  8km/h 62.7% 0.00in /  0mm 896 W/m2
11:19 92.1 °F /  33.4 °C 77.5 °F /  25.3 °C 30.14in /  1020.5hPa SE 0.2mph /  0.3km/h 5mph /  8km/h 62.7% 0.00in /  0mm 956 W/m2
11:24 92.5 °F /  33.6 °C 76.9 °F /  24.9 °C 30.14in /  1020.5hPa SW 0.4mph /  0.6km/h 5mph /  8km/h 60.6% 0.00in /  0mm 937 W/m2
11:29 92.6 °F /  33.7 °C 76.5 °F /  24.7 °C 30.14in /  1020.5hPa SW 0.7mph /  1.1km/h 5mph /  8km/h 59.5% 0.00in /  0mm 891 W/m2
11:34 92.2 °F /  33.4 °C 76.2 °F /  24.6 °C 30.14in /  1020.5hPa WSW 0.5mph /  0.8km/h 12mph /  19.3km/h 59.9% 0.00in /  0mm 983 W/m2
11:39 92.2 °F /  33.4 °C 77 °F /  25 °C 30.14in /  1020.5hPa West 0.1mph /  0.2km/h 12mph /  19.3km/h 61.3% 0.00in /  0mm 940 W/m2
11:44 92.7 °F /  33.7 °C 76.9 °F /  24.9 °C 30.14in /  1020.5hPa SW 0.9mph /  1.4km/h 12mph /  19.3km/h 60.2% 0.00in /  0mm 977 W/m2
11:49 93.4 °F /  34.1 °C 77.4 °F /  25.2 °C 30.14in /  1020.5hPa WSW 0.5mph /  0.8km/h 12mph /  19.3km/h 60.1% 0.00in /  0mm 970 W/m2
11:54 94.1 °F /  34.5 °C 77.3 °F /  25.2 °C 30.14in /  1020.5hPa SW 0.6mph /  1km/h 12mph /  19.3km/h 58.4% 0.00in /  0mm 970 W/m2
11:59 94.4 °F /  34.7 °C 76.1 °F /  24.5 °C 30.14in /  1020.5hPa Calm   12mph /  19.3km/h 55.7% 0.00in /  0mm 918 W/m2
12:00 94.4 °F /  34.7 °C 76.3 °F /  24.6 °C 30.14in /  1020.5hPa Calm   12mph /  19.3km/h 56% 0.00in /  0mm 918 W/m2
12:09 94.5 °F /  34.7 °C 76.1 °F /  24.5 °C 30.14in /  1020.5hPa WSW 0.1mph /  0.2km/h 4mph /  6.4km/h 55.6% 0.00in /  0mm 951 W/m2
12:14 94.7 °F /  34.8 °C 76.2 °F /  24.6 °C 30.14in /  1020.5hPa SW 0.7mph /  1.1km/h 9mph /  14.5km/h 55.4% 0.00in /  0mm 960 W/m2
12:19 94.9 °F /  34.9 °C 76.3 °F /  24.6 °C 30.13in /  1020.2hPa WSW 1mph /  1.6km/h 9mph /  14.5km/h 55% 0.00in /  0mm 947 W/m2
12:24 94.8 °F /  34.9 °C 75.2 °F /  24 °C 30.13in /  1020.2hPa WSW 0.6mph /  1km/h 9mph /  14.5km/h 53.5% 0.00in /  0mm 946 W/m2
12:29 94.4 °F /  34.7 °C 75.4 °F /  24.1 °C 30.13in /  1020.2hPa SW 0.6mph /  1km/h 9mph /  14.5km/h 54.5% 0.00in /  0mm 1021 W/m2
12:34 94.4 °F /  34.7 °C 76.1 °F /  24.5 °C 30.13in /  1020.2hPa WSW 0.5mph /  0.8km/h 9mph /  14.5km/h 55.6% 0.00in /  0mm 997 W/m2
12:39 94.7 °F /  34.8 °C 76.3 °F /  24.6 °C 30.13in /  1020.2hPa WSW 0.9mph /  1.4km/h 6mph /  9.7km/h 55.4% 0.00in /  0mm 1016 W/m2
12:44 95.1 °F /  35.1 °C 76 °F /  24.4 °C 30.13in /  1020.2hPa WSW 0.9mph /  1.4km/h 6mph /  9.7km/h 54.3% 0.00in /  0mm 1007 W/m2
12:49 95.4 °F /  35.2 °C 75.9 °F /  24.4 °C 30.12in /  1019.9hPa WSW 1.1mph /  1.8km/h 8mph /  12.9km/h 53.5% 0.00in /  0mm 1000 W/m2
12:54 95.4 °F /  35.2 °C 75.1 °F /  23.9 °C 30.12in /  1019.9hPa WSW 1.4mph /  2.3km/h 10mph /  16.1km/h 52.3% 0.00in /  0mm 1037 W/m2
12:59 95.3 °F /  35.2 °C 75.5 °F /  24.2 °C 30.12in /  1019.9hPa WSW 1.8mph /  2.9km/h 12mph /  19.3km/h 53% 0.00in /  0mm 1048 W/m2
13:04 95.3 °F /  35.2 °C 74.8 °F /  23.8 °C 30.12in /  1019.9hPa South 0.5mph /  0.8km/h 12mph /  19.3km/h 51.7% 0.00in /  0mm 984 W/m2
13:09 95 °F /  35 °C 73.9 °F /  23.3 °C 30.12in /  1019.9hPa South 0.8mph /  1.3km/h 5mph /  8km/h 50.7% 0.00in /  0mm 981 W/m2
13:14 94.7 °F /  34.8 °C 73.1 °F /  22.8 °C 30.12in /  1019.9hPa SSW 0.9mph /  1.4km/h 6mph /  9.7km/h 50% 0.00in /  0mm 937 W/m2
13:19 94.3 °F /  34.6 °C 73 °F /  22.8 °C 30.12in /  1019.9hPa SSE 1mph /  1.6km/h 6mph /  9.7km/h 50.2% 0.00in /  0mm 933 W/m2
13:24 94.1 °F /  34.5 °C 73.4 °F /  23 °C 30.12in /  1019.9hPa SSW 0.4mph /  0.6km/h 6mph /  9.7km/h 51.4% 0.00in /  0mm 935 W/m2
13:29 93.8 °F /  34.3 °C 73.2 °F /  22.9 °C 30.13in /  1020.2hPa South 1mph /  1.6km/h 6mph /  9.7km/h 51.3% 0.00in /  0mm 877 W/m2
13:34 93.4 °F /  34.1 °C 73.2 °F /  22.9 °C 30.12in /  1019.9hPa SSW 0.4mph /  0.6km/h 7mph /  11.3km/h 52% 0.00in /  0mm 819 W/m2
13:39 93.3 °F /  34.1 °C 74.1 °F /  23.4 °C 30.13in /  1020.2hPa WSW 0.7mph /  1.1km/h 7mph /  11.3km/h 53.9% 0.00in /  0mm 819 W/m2
13:44 93.2 °F /  34 °C 74.2 °F /  23.4 °C 30.13in /  1020.2hPa SW 1mph /  1.6km/h 7mph /  11.3km/h 54.3% 0.00in /  0mm 717 W/m2
13:49 93.4 °F /  34.1 °C 74.9 °F /  23.8 °C 30.12in /  1019.9hPa SW 1.2mph /  1.9km/h 7mph /  11.3km/h 55.2% 0.00in /  0mm 717 W/m2
13:54 93.5 °F /  34.2 °C 74.5 °F /  23.6 °C 30.12in /  1019.9hPa WSW 0.6mph /  1km/h 7mph /  11.3km/h 54.1% 0.00in /  0mm 561 W/m2
13:59 93.5 °F /  34.2 °C 74.2 °F /  23.4 °C 30.12in /  1019.9hPa SW 0.8mph /  1.3km/h 7mph /  11.3km/h 53.6% 0.00in /  0mm 216 W/m2
14:04 93.3 °F /  34.1 °C 74.3 °F /  23.5 °C 30.12in /  1019.9hPa SW 0.2mph /  0.3km/h 7mph /  11.3km/h 54.4% 0.00in /  0mm 475 W/m2
14:09 92.9 °F /  33.8 °C 73.8 °F /  23.2 °C 30.12in /  1019.9hPa South 0.3mph /  0.5km/h 4mph /  6.4km/h 54% 0.00in /  0mm 483 W/m2
14:14 92.6 °F /  33.7 °C 73.8 °F /  23.2 °C 30.12in /  1019.9hPa SW 0.4mph /  0.6km/h 4mph /  6.4km/h 54.5% 0.00in /  0mm 598 W/m2
14:19 92.4 °F /  33.6 °C 73.6 °F /  23.1 °C 30.12in /  1019.9hPa South 1.1mph /  1.8km/h 7mph /  11.3km/h 54.3% 0.00in /  0mm 715 W/m2
14:24 92.2 °F /  33.4 °C 73.5 °F /  23.1 °C 30.12in /  1019.9hPa SSW 0.5mph /  0.8km/h 7mph /  11.3km/h 54.7% 0.00in /  0mm 715 W/m2
14:29 92.3 °F /  33.5 °C 73.3 °F /  22.9 °C 30.12in /  1019.9hPa SSW 0.3mph /  0.5km/h 7mph /  11.3km/h 54.2% 0.00in /  0mm 847 W/m2
14:34 92.6 °F /  33.7 °C 73.3 °F /  22.9 °C 30.11in /  1019.5hPa South 0.7mph /  1.1km/h 7mph /  11.3km/h 53.6% 0.00in /  0mm 847 W/m2
14:39 92.9 °F /  33.8 °C 72.7 °F /  22.6 °C 30.11in /  1019.5hPa South 0.8mph /  1.3km/h 5mph /  8km/h 52.1% 0.00in /  0mm 598 W/m2
14:44 93.1 °F /  33.9 °C 72.6 °F /  22.6 °C 30.11in /  1019.5hPa South 0.3mph /  0.5km/h 5mph /  8km/h 51.5% 0.00in /  0mm 380 W/m2
14:49 93.4 °F /  34.1 °C 73.2 °F /  22.9 °C 30.11in /  1019.5hPa South 0.4mph /  0.6km/h 5mph /  8km/h 52.2% 0.00in /  0mm 220 W/m2
14:54 93.6 °F /  34.2 °C 73.6 °F /  23.1 °C 30.11in /  1019.5hPa SW 0.5mph /  0.8km/h 5mph /  8km/h 52.5% 0.00in /  0mm 100 W/m2
14:59 93.9 °F /  34.4 °C 74.1 °F /  23.4 °C 30.11in /  1019.5hPa SW 1.2mph /  1.9km/h 9mph /  14.5km/h 52.8% 0.00in /  0mm 104 W/m2
15:04 94.2 °F /  34.6 °C 74 °F /  23.3 °C 30.11in /  1019.5hPa SW 0.1mph /  0.2km/h 9mph /  14.5km/h 52.3% 0.00in /  0mm 79 W/m2
15:09 94.1 °F /  34.5 °C 73.8 °F /  23.2 °C 30.11in /  1019.5hPa SW 0.2mph /  0.3km/h 2mph /  3.2km/h 52% 0.00in /  0mm 79 W/m2
15:14 93.8 °F /  34.3 °C 73.9 °F /  23.3 °C 30.11in /  1019.5hPa SSW 0.3mph /  0.5km/h 3mph /  4.8km/h 52.5% 0.00in /  0mm 83 W/m2
15:19 93.7 °F /  34.3 °C 74 °F /  23.3 °C 30.11in /  1019.5hPa SW 1.1mph /  1.8km/h 7mph /  11.3km/h 53.1% 0.00in /  0mm 114 W/m2
15:24 93.5 °F /  34.2 °C 74.4 °F /  23.6 °C 30.10in /  1019.2hPa SW 0.9mph /  1.4km/h 7mph /  11.3km/h 54.1% 0.00in /  0mm 114 W/m2
15:29 93.4 °F /  34.1 °C 74.1 °F /  23.4 °C 30.10in /  1019.2hPa SW 0.3mph /  0.5km/h 7mph /  11.3km/h 53.7% 0.00in /  0mm 72 W/m2
15:34 93.1 °F /  33.9 °C 74.3 °F /  23.5 °C 30.10in /  1019.2hPa SW 1.7mph /  2.7km/h 10mph /  16.1km/h 54.5% 0.00in /  0mm 76 W/m2
15:39 93 °F /  33.9 °C 74.3 °F /  23.5 °C 30.10in /  1019.2hPa WSW 0.4mph /  0.6km/h 10mph /  16.1km/h 54.7% 0.00in /  0mm 76 W/m2
15:44 93.2 °F /  34 °C 74.5 °F /  23.6 °C 30.10in /  1019.2hPa SW 0.3mph /  0.5km/h 10mph /  16.1km/h 54.8% 0.00in /  0mm 72 W/m2
15:49 93.4 °F /  34.1 °C 74.4 °F /  23.6 °C 30.10in /  1019.2hPa SSW 0.4mph /  0.6km/h 10mph /  16.1km/h 54.2% 0.00in /  0mm 67 W/m2
15:54 93.4 °F /  34.1 °C 74.3 °F /  23.5 °C 30.10in /  1019.2hPa SSW 0.3mph /  0.5km/h 10mph /  16.1km/h 54% 0.00in /  0mm 76 W/m2
15:59 93.3 °F /  34.1 °C 73.8 °F /  23.2 °C 30.10in /  1019.2hPa South 0.1mph /  0.2km/h 10mph /  16.1km/h 53.3% 0.00in /  0mm 107 W/m2
16:07 92.9 °F /  33.8 °C 73.9 °F /  23.3 °C 30.10in /  1019.2hPa Calm     54.1% 0.00in /  0mm 72 W/m2
16:14 92.9 °F /  33.8 °C 73.9 °F /  23.3 °C 30.10in /  1019.2hPa SW 0.1mph /  0.2km/h 3mph /  4.8km/h 54.2% 0.00in /  0mm 65 W/m2
16:19 92.7 °F /  33.7 °C 73.6 °F /  23.1 °C 30.10in /  1019.2hPa SW 0.4mph /  0.6km/h 3mph /  4.8km/h 54% 0.00in /  0mm 63 W/m2
16:24 92.3 °F /  33.5 °C 73.4 °F /  23 °C 30.10in /  1019.2hPa SSW 0.6mph /  1km/h 4mph /  6.4km/h 54.2% 0.00in /  0mm 56 W/m2
16:29 91.9 °F /  33.3 °C 73 °F /  22.8 °C 30.10in /  1019.2hPa South 0.1mph /  0.2km/h 4mph /  6.4km/h 54.3% 0.00in /  0mm 51 W/m2
16:34 91.5 °F /  33.1 °C 73.1 °F /  22.8 °C 30.10in /  1019.2hPa South 0.4mph /  0.6km/h 4mph /  6.4km/h 55% 0.00in /  0mm 46 W/m2
16:39 91 °F /  32.8 °C 72.8 °F /  22.7 °C 30.09in /  1018.8hPa SW 0.3mph /  0.5km/h 4mph /  6.4km/h 55.4% 0.00in /  0mm 40 W/m2
16:44 90.6 °F /  32.6 °C 72.7 °F /  22.6 °C 30.09in /  1018.8hPa Calm   4mph /  6.4km/h 56% 0.00in /  0mm 42 W/m2
16:49 90.2 °F /  32.3 °C 73 °F /  22.8 °C 30.09in /  1018.8hPa WSW 0.1mph /  0.2km/h 5mph /  8km/h 57.1% 0.00in /  0mm 40 W/m2
16:54 89.9 °F /  32.2 °C 73.2 °F /  22.9 °C 30.09in /  1018.8hPa South 0.3mph /  0.5km/h 7mph /  11.3km/h 58% 0.00in /  0mm 42 W/m2
16:59 89.6 °F /  32 °C 72.9 °F /  22.7 °C 30.09in /  1018.8hPa SW 0.2mph /  0.3km/h 7mph /  11.3km/h 58% 0.00in /  0mm 49 W/m2
17:04 89.4 °F /  31.9 °C 72.9 °F /  22.7 °C 30.09in /  1018.8hPa South 0.3mph /  0.5km/h 7mph /  11.3km/h 58.3% 0.00in /  0mm 51 W/m2
17:09 89.3 °F /  31.8 °C 73.1 °F /  22.8 °C 30.09in /  1018.8hPa South 0.2mph /  0.3km/h 4mph /  6.4km/h 59% 0.00in /  0mm 53 W/m2
17:14 89.1 °F /  31.7 °C 72.9 °F /  22.7 °C 30.09in /  1018.8hPa South 0.4mph /  0.6km/h 4mph /  6.4km/h 59% 0.00in /  0mm 53 W/m2
17:19 88.9 °F /  31.6 °C 73.2 °F /  22.9 °C 30.09in /  1018.8hPa South 0.3mph /  0.5km/h 4mph /  6.4km/h 59.9% 0.00in /  0mm 49 W/m2
17:24 88.8 °F /  31.6 °C 73.1 °F /  22.8 °C 30.09in /  1018.8hPa Calm   4mph /  6.4km/h 60% 0.00in /  0mm 53 W/m2
17:29 88.7 °F /  31.5 °C 73.4 °F /  23 °C 30.09in /  1018.8hPa Calm   4mph /  6.4km/h 60.7% 0.00in /  0mm 60 W/m2
17:34 88.7 °F /  31.5 °C 73.4 °F /  23 °C 30.09in /  1018.8hPa SW 0.3mph /  0.5km/h 5mph /  8km/h 60.7% 0.00in /  0mm 60 W/m2
17:39 88.8 °F /  31.6 °C 73.6 °F /  23.1 °C 30.09in /  1018.8hPa WSW 0.3mph /  0.5km/h 6mph /  9.7km/h 60.8% 0.00in /  0mm 56 W/m2
17:44 88.9 °F /  31.6 °C 73.5 °F /  23.1 °C 30.09in /  1018.8hPa WSW 0.4mph /  0.6km/h 6mph /  9.7km/h 60.6% 0.00in /  0mm 60 W/m2
17:49 88.8 °F /  31.6 °C 73.5 °F /  23.1 °C 30.09in /  1018.8hPa Calm   6mph /  9.7km/h 60.7% 0.00in /  0mm 60 W/m2
17:54 88.9 °F /  31.6 °C 73.6 °F /  23.1 °C 30.09in /  1018.8hPa SW 0.1mph /  0.2km/h 9mph /  14.5km/h 60.7% 0.00in /  0mm 54 W/m2
17:59 88.9 °F /  31.6 °C 73.7 °F /  23.2 °C 30.09in /  1018.8hPa SW 0.3mph /  0.5km/h 9mph /  14.5km/h 61% 0.00in /  0mm 54 W/m2
18:04 89 °F /  31.7 °C 73.6 °F /  23.1 °C 30.09in /  1018.8hPa SW 0.1mph /  0.2km/h 9mph /  14.5km/h 60.7% 0.00in /  0mm 53 W/m2
18:09 89 °F /  31.7 °C 73.8 °F /  23.2 °C 30.08in /  1018.5hPa Calm   3mph /  4.8km/h 61% 0.00in /  0mm 49 W/m2
18:14 88.9 °F /  31.6 °C 74.1 °F /  23.4 °C 30.08in /  1018.5hPa SW 0.6mph /  1km/h 6mph /  9.7km/h 61.7% 0.00in /  0mm 44 W/m2
18:19 88.9 °F /  31.6 °C 74.2 °F /  23.4 °C 30.08in /  1018.5hPa Calm   6mph /  9.7km/h 62% 0.00in /  0mm 39 W/m2
18:24 88.8 °F /  31.6 °C 74.5 °F /  23.6 °C 30.09in /  1018.8hPa West 0.2mph /  0.3km/h 6mph /  9.7km/h 62.8% 0.00in /  0mm 35 W/m2
18:29 88.6 °F /  31.4 °C 74.4 °F /  23.6 °C 30.08in /  1018.5hPa West 0.1mph /  0.2km/h 6mph /  9.7km/h 63% 0.00in /  0mm 32 W/m2
18:34 88.4 °F /  31.3 °C 74.4 °F /  23.6 °C 30.08in /  1018.5hPa WSW 0.2mph /  0.3km/h 6mph /  9.7km/h 63.5% 0.00in /  0mm 30 W/m2
18:39 88.2 °F /  31.2 °C 74.6 °F /  23.7 °C 30.08in /  1018.5hPa Calm   6mph /  9.7km/h 64.3% 0.00in /  0mm 30 W/m2
18:44 88 °F /  31.1 °C 74.8 °F /  23.8 °C 30.08in /  1018.5hPa South 0.1mph /  0.2km/h 6mph /  9.7km/h 65% 0.00in /  0mm 28 W/m2
18:49 87.8 °F /  31 °C 75 °F /  23.9 °C 30.08in /  1018.5hPa SSW 0.1mph /  0.2km/h 6mph /  9.7km/h 66% 0.00in /  0mm 26 W/m2
18:54 87.6 °F /  30.9 °C 75 °F /  23.9 °C 30.09in /  1018.8hPa SW 0.3mph /  0.5km/h 6mph /  9.7km/h 66.3% 0.00in /  0mm 26 W/m2
18:59 87.4 °F /  30.8 °C 75.1 °F /  23.9 °C 30.09in /  1018.8hPa Calm   6mph /  9.7km/h 67% 0.00in /  0mm 25 W/m2
19:04 87.1 °F /  30.6 °C 74.9 °F /  23.8 °C 30.09in /  1018.8hPa SSW 0.2mph /  0.3km/h 6mph /  9.7km/h 67.2% 0.00in /  0mm 23 W/m2
19:09 86.8 °F /  30.4 °C 75 °F /  23.9 °C 30.09in /  1018.8hPa South 0.3mph /  0.5km/h 4mph /  6.4km/h 68% 0.00in /  0mm 23 W/m2
19:14 86.5 °F /  30.3 °C 74.8 °F /  23.8 °C 30.09in /  1018.8hPa SW 0.2mph /  0.3km/h 4mph /  6.4km/h 68.2% 0.00in /  0mm 21 W/m2
19:19 86.3 °F /  30.2 °C 74.9 °F /  23.8 °C 30.09in /  1018.8hPa Calm   4mph /  6.4km/h 69% 0.00in /  0mm 21 W/m2
19:24 86.1 °F /  30.1 °C 74.9 °F /  23.8 °C 30.09in /  1018.8hPa SW 0.2mph /  0.3km/h 4mph /  6.4km/h 69.3% 0.00in /  0mm 21 W/m2
19:29 85.9 °F /  29.9 °C 75 °F /  23.9 °C 30.09in /  1018.8hPa SW 0.1mph /  0.2km/h 4mph /  6.4km/h 70% 0.00in /  0mm 21 W/m2
19:34 85.7 °F /  29.8 °C 74.7 °F /  23.7 °C 30.09in /  1018.8hPa WSW 0.2mph /  0.3km/h 4mph /  6.4km/h 70% 0.00in /  0mm 16 W/m2
19:39 85.5 °F /  29.7 °C 74.6 °F /  23.7 °C 30.10in /  1019.2hPa SW 0.1mph /  0.2km/h 2mph /  3.2km/h 70% 0.00in /  0mm 11 W/m2
19:44 85.3 °F /  29.6 °C 74.7 °F /  23.7 °C 30.09in /  1018.8hPa Calm   2mph /  3.2km/h 70.7% 0.00in /  0mm 9 W/m2
19:49 85.1 °F /  29.5 °C 74.6 °F /  23.7 °C 30.09in /  1018.8hPa Calm   2mph /  3.2km/h 71% 0.00in /  0mm 7 W/m2
19:54 84.8 °F /  29.3 °C 74.4 °F /  23.6 °C 30.10in /  1019.2hPa SSW 0.1mph /  0.2km/h 2mph /  3.2km/h 71% 0.00in /  0mm 0 W/m2
19:59 84.6 °F /  29.2 °C 74.2 °F /  23.4 °C 30.10in /  1019.2hPa South 0.1mph /  0.2km/h 2mph /  3.2km/h 71% 0.00in /  0mm 0 W/m2
20:00 84.5 °F /  29.2 °C 74.1 °F /  23.4 °C 30.10in /  1019.2hPa Calm   2mph /  3.2km/h 71% 0.00in /  0mm 0 W/m2
20:09 84.2 °F /  29 °C 74.2 °F /  23.4 °C 30.10in /  1019.2hPa Calm     72% 0.00in /  0mm 0 W/m2
20:14 84.1 °F /  28.9 °C 74.1 °F /  23.4 °C 30.10in /  1019.2hPa Calm     72% 0.00in /  0mm 0 W/m2
20:18 83.9 °F /  28.8 °C 73.9 °F /  23.3 °C 30.10in /  1019.2hPa Calm   2mph /  3.2km/h 72% 0.00in /  0mm 0 W/m2
20:30 83.5 °F /  28.6 °C 73.9 °F /  23.3 °C 30.10in /  1019.2hPa Calm   4mph /  6.4km/h 73% 0.00in /  0mm 0 W/m2
21:00 82.5 °F /  28.1 °C 73.8 °F /  23.2 °C 30.11in /  1019.5hPa Calm   3mph /  4.8km/h 75% 0.00in /  0mm 0 W/m2
22:00 81.1 °F /  27.3 °C 73.6 °F /  23.1 °C 30.13in /  1020.2hPa Calm     78% 0.00in /  0mm 0 W/m2
22:30 80.7 °F /  27.1 °C 73.6 °F /  23.1 °C 30.13in /  1020.2hPa Calm   1mph /  1.6km/h 79% 0.00in /  0mm 0 W/m2
23:00 80.3 °F /  26.8 °C 73.9 °F /  23.3 °C 30.13in /  1020.2hPa Calm   1mph /  1.6km/h 81% 0.00in /  0mm 0 W/m2
23:30 79.8 °F /  26.6 °C 74.2 °F /  23.4 °C 30.13in /  1020.2hPa Calm   3mph /  4.8km/h 83% 0.00in /  0mm 0 W/m2
Hartford County Weather
Compliments of Weather Underground - 4 mb